KRIL/RIL METAR and TAF weather

Enter ICAO airport designator
Station Type Date Time Source
KRIL METAR 2022/06/26 06:53 UTC NOAA

KRIL 260653Z AUTO 10006KT 10SM CLR 16/05 A3027 RMK AO2 SLP182 T01560050 403220100


Station Type Date Time Source
KRIL Decoded METAR 2022/06/26 06:53 UTC NOAA

RIFLE GARFIELD COUNTY RGNL, CO, United States (KRIL) 39-31N 107-44W 1678M
Jun 26, 2022 - 02:53 AM EDT / 2022.06.26 0653 UTC
Wind: from the E (100 degrees) at 7 MPH (6 KT):0
Visibility: 10 mile(s):0
Sky conditions: clear
Temperature: 60.1 F (15.6 C)
Dew Point: 41.0 F (5.0 C)
Relative Humidity: 49%
Pressure (altimeter): 30.27 in. Hg (1025 hPa)
ob: KRIL 260653Z AUTO 10006KT 10SM CLR 16/05 A3027 RMK AO2 SLP182 T01560050 403220100
cycle: 7

Station Type Date Time Source
KRIL TAF 2022/06/26 06:22 UTC NOAA

TAF KRIL 260520Z 2606/2706 VRB04KT P6SM SCT120
FM261800 29006KT P6SM SCT100
FM262000 29011KT P6SM VCSH SCT100
TEMPO 2621/2623 33012G22KT -TSRA BKN090CB
FM262300 19008KT P6SM BKN100

Example: see airport list